GER24M EDDL-EDFM
Flight info
| Callsign | GER24M |
|---|---|
| Flight time | N/A |
| Altitude | 23000 |
| Route | KUMIK5Z KUMIK L603 BOMBI Z120 OLKAS Z41 EBATU Z3 KETEG |
| Aircraft | C25C/M-SDE2E3FGHRWXY/LB1 |
Departure
| Time | N/A |
|---|---|
| Airport | Düsseldorf Airport (EDDL) |
Arrival
| Time | 2026-04-21 17:02 |
|---|---|
| Airport | Mannheim-City Airport (EDFM) |
| Time | Latitude | Longitude | Altitude | Speed | Heading |
|---|---|---|---|---|---|
| 2026-04-21 16:51 | 49.74585 | 8.86082 | 9719 ft | 288 kts | 160° |
| 2026-04-21 16:51 | 49.72713 | 8.87158 | 9393 ft | 287 kts | 161° |
| 2026-04-21 16:52 | 49.70846 | 8.88236 | 9065 ft | 286 kts | 161° |
| 2026-04-21 16:52 | 49.68989 | 8.89310 | 8782 ft | 284 kts | 161° |
| 2026-04-21 16:52 | 49.67145 | 8.90384 | 8509 ft | 282 kts | 160° |
| 2026-04-21 16:52 | 49.65311 | 8.91443 | 8254 ft | 281 kts | 161° |
| 2026-04-21 16:53 | 49.63482 | 8.92498 | 7993 ft | 279 kts | 160° |
| 2026-04-21 16:53 | 49.61687 | 8.93542 | 7732 ft | 274 kts | 160° |
| 2026-04-21 16:53 | 49.59936 | 8.94548 | 7475 ft | 270 kts | 160° |
| 2026-04-21 16:53 | 49.58192 | 8.95559 | 7220 ft | 267 kts | 160° |
| 2026-04-21 16:54 | 49.56453 | 8.96556 | 6965 ft | 266 kts | 160° |
| 2026-04-21 16:54 | 49.54728 | 8.97553 | 6715 ft | 264 kts | 159° |
| 2026-04-21 16:54 | 49.53018 | 8.98540 | 6456 ft | 260 kts | 159° |
| 2026-04-21 16:54 | 49.51308 | 8.99358 | 6181 ft | 257 kts | 173° |
| 2026-04-21 16:55 | 49.49564 | 8.99160 | 6052 ft | 247 kts | 186° |
| 2026-04-21 16:55 | 49.47882 | 8.98928 | 5957 ft | 240 kts | 189° |
| 2026-04-21 16:55 | 49.46423 | 8.97807 | 5732 ft | 236 kts | 224° |
| 2026-04-21 16:55 | 49.45545 | 8.95751 | 5510 ft | 230 kts | 256° |
| 2026-04-21 16:56 | 49.45365 | 8.93389 | 5298 ft | 223 kts | 273° |
| 2026-04-21 16:56 | 49.45450 | 8.91023 | 5101 ft | 219 kts | 276° |
| 2026-04-21 16:56 | 49.45557 | 8.88746 | 5052 ft | 209 kts | 278° |
| 2026-04-21 16:56 | 49.45663 | 8.86568 | 5028 ft | 201 kts | 277° |
| 2026-04-21 16:57 | 49.45758 | 8.84477 | 5018 ft | 190 kts | 277° |
| 2026-04-21 16:57 | 49.45850 | 8.82435 | 5010 ft | 192 kts | 277° |
| 2026-04-21 16:57 | 49.45943 | 8.80410 | 5018 ft | 190 kts | 277° |
| 2026-04-21 16:57 | 49.46034 | 8.78383 | 5013 ft | 191 kts | 277° |
| 2026-04-21 16:58 | 49.46127 | 8.76339 | 5013 ft | 193 kts | 278° |
| 2026-04-21 16:58 | 49.46226 | 8.74282 | 5019 ft | 193 kts | 277° |
| 2026-04-21 16:58 | 49.46321 | 8.72220 | 5012 ft | 193 kts | 277° |
| 2026-04-21 16:58 | 49.46414 | 8.70165 | 5012 ft | 192 kts | 277° |
| 2026-04-21 16:59 | 49.46502 | 8.68201 | 5003 ft | 182 kts | 277° |
| 2026-04-21 16:59 | 49.46602 | 8.66235 | 4659 ft | 185 kts | 277° |
| 2026-04-21 16:59 | 49.46690 | 8.64298 | 4289 ft | 174 kts | 277° |
| 2026-04-21 16:59 | 49.46755 | 8.62567 | 3802 ft | 144 kts | 277° |
| 2026-04-21 17:00 | 49.46785 | 8.61134 | 3194 ft | 130 kts | 279° |
| 2026-04-21 17:00 | 49.46832 | 8.59785 | 2671 ft | 123 kts | 279° |
| 2026-04-21 17:00 | 49.46876 | 8.58928 | 2384 ft | 119 kts | 281° |
| 2026-04-21 17:00 | 49.46971 | 8.57255 | 1777 ft | 115 kts | 281° |
| 2026-04-21 17:01 | 49.47042 | 8.56038 | 1371 ft | 116 kts | 278° |
| 2026-04-21 17:01 | 49.47112 | 8.54814 | 991 ft | 116 kts | 276° |
| 2026-04-21 17:01 | 49.47182 | 8.53602 | 657 ft | 114 kts | 276° |
| 2026-04-21 17:01 | 49.47233 | 8.52424 | 402 ft | 105 kts | 277° |
| 2026-04-21 17:02 | 49.47279 | 8.51388 | 314 ft | 81 kts | 277° |
| 2026-04-21 17:02 | 49.47297 | 8.50802 | 316 ft | 30 kts | 269° |
| 2026-04-21 17:02 | 49.47297 | 8.50691 | 316 ft | 5 kts | 234° |
| 2026-04-21 17:02 | 49.47271 | 8.50694 | 315 ft | 4 kts | 124° |
| 2026-04-21 17:03 | 49.47253 | 8.50742 | 315 ft | 6 kts | 123° |
| 2026-04-21 17:03 | 49.47241 | 8.50796 | 315 ft | 5 kts | 94° |
| 2026-04-21 17:03 | 49.47238 | 8.50856 | 315 ft | 6 kts | 92° |
| 2026-04-21 17:03 | 49.47237 | 8.50930 | 315 ft | 8 kts | 92° |
| 2026-04-21 17:04 | 49.47234 | 8.51023 | 315 ft | 10 kts | 94° |
| 2026-04-21 17:04 | 49.47229 | 8.51137 | 315 ft | 12 kts | 92° |
| 2026-04-21 17:04 | 49.47227 | 8.51273 | 315 ft | 14 kts | 90° |
| 2026-04-21 17:04 | 49.47221 | 8.51418 | 315 ft | 13 kts | 94° |
| 2026-04-21 17:05 | 49.47215 | 8.51565 | 315 ft | 14 kts | 94° |
| 2026-04-21 17:05 | 49.47211 | 8.51720 | 314 ft | 15 kts | 92° |
| 2026-04-21 17:05 | 49.47204 | 8.51877 | 315 ft | 15 kts | 93° |
| 2026-04-21 17:05 | 49.47199 | 8.52037 | 315 ft | 15 kts | 92° |
| 2026-04-21 17:06 | 49.47251 | 8.52147 | 314 ft | 13 kts | 11° |
| 2026-04-21 17:06 | 49.47340 | 8.52156 | 315 ft | 13 kts | 4° |
| 2026-04-21 17:06 | 49.47433 | 8.52164 | 315 ft | 14 kts | 2° |
| 2026-04-21 17:06 | 49.47526 | 8.52173 | 315 ft | 12 kts | 5° |
| 2026-04-21 17:07 | 49.47558 | 8.52178 | 314 ft | 0 kts | 6° |
| 2026-04-21 17:07 | 49.47562 | 8.52178 | 314 ft | 2 kts | 0° |
| 2026-04-21 17:07 | 49.47583 | 8.52165 | 313 ft | 2 kts | 286° |
| 2026-04-21 17:08 | 49.47584 | 8.52134 | 313 ft | 5 kts | 273° |
| 2026-04-21 17:08 | 49.47604 | 8.52105 | 313 ft | 5 kts | 345° |
| 2026-04-21 17:08 | 49.47614 | 8.52070 | 313 ft | 3 kts | 265° |
| 2026-04-21 17:08 | 49.47614 | 8.52055 | 313 ft | 0 kts | 269° |
| 2026-04-21 17:09 | 49.47614 | 8.52051 | 313 ft | 0 kts | 272° |